sensor_id;sensor_type;location;lat;lon;timestamp;P1;durP1;ratioP1;P2;durP2;ratioP2
34278;SDS011;20538;51.528;9.942;2022-11-14T00:00:35;55.22;;;23.50;;
34278;SDS011;20538;51.528;9.942;2022-11-14T00:03:02;55.65;;;23.50;;
34278;SDS011;20538;51.528;9.942;2022-11-14T00:05:29;52.72;;;25.17;;
34278;SDS011;20538;51.528;9.942;2022-11-14T00:07:55;57.63;;;24.75;;
34278;SDS011;20538;51.528;9.942;2022-11-14T00:10:21;57.78;;;25.10;;
34278;SDS011;20538;51.528;9.942;2022-11-14T00:12:46;60.20;;;24.88;;
34278;SDS011;20538;51.528;9.942;2022-11-14T00:15:12;56.10;;;24.83;;
34278;SDS011;20538;51.528;9.942;2022-11-14T00:17:38;55.90;;;23.73;;
34278;SDS011;20538;51.528;9.942;2022-11-14T00:20:04;54.15;;;23.80;;
34278;SDS011;20538;51.528;9.942;2022-11-14T00:22:31;49.70;;;21.85;;
34278;SDS011;20538;51.528;9.942;2022-11-14T00:24:57;50.25;;;21.48;;
34278;SDS011;20538;51.528;9.942;2022-11-14T00:27:22;55.72;;;22.73;;
34278;SDS011;20538;51.528;9.942;2022-11-14T00:29:48;53.10;;;22.50;;
34278;SDS011;20538;51.528;9.942;2022-11-14T00:32:14;56.38;;;23.23;;
34278;SDS011;20538;51.528;9.942;2022-11-14T00:34:40;56.60;;;24.33;;
34278;SDS011;20538;51.528;9.942;2022-11-14T00:37:05;58.80;;;23.80;;
34278;SDS011;20538;51.528;9.942;2022-11-14T00:39:31;55.53;;;23.67;;
34278;SDS011;20538;51.528;9.942;2022-11-14T00:41:56;54.60;;;22.92;;
34278;SDS011;20538;51.528;9.942;2022-11-14T00:44:22;56.28;;;22.50;;
34278;SDS011;20538;51.528;9.942;2022-11-14T00:46:48;51.05;;;23.00;;
34278;SDS011;20538;51.528;9.942;2022-11-14T00:49:13;50.90;;;21.67;;
34278;SDS011;20538;51.528;9.942;2022-11-14T00:51:39;53.47;;;23.27;;
34278;SDS011;20538;51.528;9.942;2022-11-14T00:54:05;60.70;;;24.20;;
34278;SDS011;20538;51.528;9.942;2022-11-14T00:56:30;55.47;;;22.70;;
34278;SDS011;20538;51.528;9.942;2022-11-14T00:58:56;53.83;;;23.85;;
34278;SDS011;20538;51.528;9.942;2022-11-14T01:01:21;56.80;;;23.02;;
34278;SDS011;20538;51.528;9.942;2022-11-14T01:03:48;61.90;;;25.23;;
34278;SDS011;20538;51.528;9.942;2022-11-14T01:06:14;55.45;;;22.92;;
34278;SDS011;20538;51.528;9.942;2022-11-14T01:08:40;58.22;;;24.75;;
34278;SDS011;20538;51.528;9.942;2022-11-14T01:11:15;61.63;;;24.98;;
34278;SDS011;20538;51.528;9.942;2022-11-14T01:13:42;57.50;;;25.10;;
34278;SDS011;20538;51.528;9.942;2022-11-14T01:16:08;56.55;;;24.60;;
34278;SDS011;20538;51.528;9.942;2022-11-14T01:18:34;52.55;;;23.48;;
34278;SDS011;20538;51.528;9.942;2022-11-14T01:21:11;49.45;;;21.30;;
34278;SDS011;20538;51.528;9.942;2022-11-14T01:23:37;54.25;;;23.48;;
34278;SDS011;20538;51.528;9.942;2022-11-14T01:26:08;59.40;;;23.65;;
34278;SDS011;20538;51.528;9.942;2022-11-14T01:28:37;56.05;;;23.33;;
34278;SDS011;20538;51.528;9.942;2022-11-14T01:31:20;56.88;;;24.48;;
34278;SDS011;20538;51.528;9.942;2022-11-14T01:33:48;59.58;;;23.73;;
34278;SDS011;20538;51.528;9.942;2022-11-14T01:36:15;58.63;;;24.77;;
34278;SDS011;20538;51.528;9.942;2022-11-14T01:38:40;62.55;;;24.63;;
34278;SDS011;20538;51.528;9.942;2022-11-14T01:41:06;62.15;;;25.55;;
34278;SDS011;20538;51.528;9.942;2022-11-14T01:43:32;62.30;;;24.58;;
34278;SDS011;20538;51.528;9.942;2022-11-14T01:48:36;58.53;;;22.88;;
34278;SDS011;20538;51.528;9.942;2022-11-14T01:51:16;59.03;;;23.08;;
34278;SDS011;20538;51.528;9.942;2022-11-14T01:53:46;59.20;;;24.23;;
34278;SDS011;20538;51.528;9.942;2022-11-14T01:56:15;55.85;;;24.58;;
34278;SDS011;20538;51.528;9.942;2022-11-14T01:58:44;56.55;;;23.25;;
34278;SDS011;20538;51.528;9.942;2022-11-14T02:01:14;63.30;;;25.60;;
34278;SDS011;20538;51.528;9.942;2022-11-14T02:03:40;58.75;;;24.88;;
34278;SDS011;20538;51.528;9.942;2022-11-14T02:06:08;60.88;;;24.38;;
34278;SDS011;20538;51.528;9.942;2022-11-14T02:08:37;58.30;;;24.00;;
34278;SDS011;20538;51.528;9.942;2022-11-14T02:11:04;60.10;;;24.15;;
34278;SDS011;20538;51.528;9.942;2022-11-14T02:13:30;58.67;;;25.15;;
34278;SDS011;20538;51.528;9.942;2022-11-14T02:15:55;56.97;;;24.02;;
34278;SDS011;20538;51.528;9.942;2022-11-14T02:18:21;60.92;;;24.13;;
34278;SDS011;20538;51.528;9.942;2022-11-14T02:20:47;61.85;;;24.05;;
34278;SDS011;20538;51.528;9.942;2022-11-14T02:23:12;62.03;;;24.77;;
34278;SDS011;20538;51.528;9.942;2022-11-14T02:25:38;57.30;;;24.95;;
34278;SDS011;20538;51.528;9.942;2022-11-14T02:28:05;57.83;;;25.52;;
34278;SDS011;20538;51.528;9.942;2022-11-14T02:30:32;55.75;;;24.20;;
34278;SDS011;20538;51.528;9.942;2022-11-14T02:32:58;56.80;;;25.25;;
34278;SDS011;20538;51.528;9.942;2022-11-14T02:35:23;53.67;;;22.77;;
34278;SDS011;20538;51.528;9.942;2022-11-14T02:37:49;55.20;;;23.60;;
34278;SDS011;20538;51.528;9.942;2022-11-14T02:40:15;58.75;;;23.75;;
34278;SDS011;20538;51.528;9.942;2022-11-14T02:42:40;51.42;;;23.52;;
34278;SDS011;20538;51.528;9.942;2022-11-14T02:45:06;59.83;;;23.05;;
34278;SDS011;20538;51.528;9.942;2022-11-14T02:47:33;54.60;;;23.38;;
34278;SDS011;20538;51.528;9.942;2022-11-14T02:49:59;57.25;;;23.08;;
34278;SDS011;20538;51.528;9.942;2022-11-14T02:52:24;59.25;;;24.33;;
34278;SDS011;20538;51.528;9.942;2022-11-14T02:54:50;52.90;;;23.45;;
34278;SDS011;20538;51.528;9.942;2022-11-14T02:57:15;61.78;;;24.70;;
34278;SDS011;20538;51.528;9.942;2022-11-14T02:59:41;56.05;;;23.17;;
34278;SDS011;20538;51.528;9.942;2022-11-14T03:02:06;60.15;;;24.38;;
34278;SDS011;20538;51.528;9.942;2022-11-14T03:04:32;58.08;;;23.33;;
34278;SDS011;20538;51.528;9.942;2022-11-14T03:06:58;51.72;;;22.77;;
34278;SDS011;20538;51.528;9.942;2022-11-14T03:09:23;59.55;;;24.02;;
34278;SDS011;20538;51.528;9.942;2022-11-14T03:11:51;54.95;;;24.73;;
34278;SDS011;20538;51.528;9.942;2022-11-14T03:14:17;59.35;;;23.98;;
34278;SDS011;20538;51.528;9.942;2022-11-14T03:16:42;60.55;;;24.70;;
34278;SDS011;20538;51.528;9.942;2022-11-14T03:19:08;59.45;;;24.88;;
34278;SDS011;20538;51.528;9.942;2022-11-14T03:21:33;55.05;;;24.60;;
34278;SDS011;20538;51.528;9.942;2022-11-14T03:23:59;66.80;;;24.40;;
34278;SDS011;20538;51.528;9.942;2022-11-14T03:26:25;58.63;;;23.38;;
34278;SDS011;20538;51.528;9.942;2022-11-14T03:28:50;62.88;;;25.50;;
34278;SDS011;20538;51.528;9.942;2022-11-14T03:31:16;56.88;;;24.48;;
34278;SDS011;20538;51.528;9.942;2022-11-14T03:33:41;53.70;;;23.67;;
34278;SDS011;20538;51.528;9.942;2022-11-14T03:36:07;50.95;;;22.50;;
34278;SDS011;20538;51.528;9.942;2022-11-14T03:38:33;59.83;;;24.17;;
34278;SDS011;20538;51.528;9.942;2022-11-14T03:40:59;60.33;;;24.23;;
34278;SDS011;20538;51.528;9.942;2022-11-14T03:43:25;60.35;;;23.08;;
34278;SDS011;20538;51.528;9.942;2022-11-14T03:45:56;55.22;;;23.42;;
34278;SDS011;20538;51.528;9.942;2022-11-14T03:48:22;60.17;;;23.70;;
34278;SDS011;20538;51.528;9.942;2022-11-14T03:50:48;58.72;;;23.58;;
34278;SDS011;20538;51.528;9.942;2022-11-14T03:53:13;55.05;;;23.63;;
34278;SDS011;20538;51.528;9.942;2022-11-14T03:55:39;54.72;;;23.98;;
34278;SDS011;20538;51.528;9.942;2022-11-14T03:58:07;59.78;;;24.83;;
34278;SDS011;20538;51.528;9.942;2022-11-14T04:00:33;56.60;;;24.23;;
34278;SDS011;20538;51.528;9.942;2022-11-14T04:02:59;66.70;;;24.90;;
34278;SDS011;20538;51.528;9.942;2022-11-14T04:05:24;59.47;;;24.25;;
34278;SDS011;20538;51.528;9.942;2022-11-14T04:07:50;56.50;;;23.40;;
34278;SDS011;20538;51.528;9.942;2022-11-14T04:10:16;62.47;;;25.15;;
34278;SDS011;20538;51.528;9.942;2022-11-14T04:12:48;58.40;;;23.52;;
34278;SDS011;20538;51.528;9.942;2022-11-14T04:15:16;68.45;;;24.17;;
34278;SDS011;20538;51.528;9.942;2022-11-14T04:17:42;59.58;;;24.05;;
34278;SDS011;20538;51.528;9.942;2022-11-14T04:20:08;67.03;;;25.52;;
34278;SDS011;20538;51.528;9.942;2022-11-14T04:22:34;55.60;;;24.20;;
34278;SDS011;20538;51.528;9.942;2022-11-14T04:25:00;53.95;;;23.15;;
34278;SDS011;20538;51.528;9.942;2022-11-14T04:27:26;55.95;;;24.98;;
34278;SDS011;20538;51.528;9.942;2022-11-14T04:29:51;64.30;;;25.48;;
34278;SDS011;20538;51.528;9.942;2022-11-14T04:32:17;54.80;;;23.88;;
34278;SDS011;20538;51.528;9.942;2022-11-14T04:34:42;63.00;;;23.73;;
34278;SDS011;20538;51.528;9.942;2022-11-14T04:37:08;62.85;;;23.42;;
34278;SDS011;20538;51.528;9.942;2022-11-14T04:39:34;65.38;;;25.88;;
34278;SDS011;20538;51.528;9.942;2022-11-14T04:42:00;55.67;;;24.02;;
34278;SDS011;20538;51.528;9.942;2022-11-14T04:44:25;62.80;;;25.73;;
34278;SDS011;20538;51.528;9.942;2022-11-14T04:46:51;69.57;;;26.25;;
34278;SDS011;20538;51.528;9.942;2022-11-14T04:49:17;59.97;;;24.48;;
34278;SDS011;20538;51.528;9.942;2022-11-14T04:51:42;63.05;;;24.58;;
34278;SDS011;20538;51.528;9.942;2022-11-14T04:54:08;63.17;;;26.88;;
34278;SDS011;20538;51.528;9.942;2022-11-14T04:56:34;61.55;;;24.80;;
34278;SDS011;20538;51.528;9.942;2022-11-14T04:59:00;65.47;;;25.48;;
34278;SDS011;20538;51.528;9.942;2022-11-14T05:01:26;64.13;;;27.15;;
34278;SDS011;20538;51.528;9.942;2022-11-14T05:03:51;59.00;;;26.05;;
34278;SDS011;20538;51.528;9.942;2022-11-14T05:06:17;65.65;;;26.52;;
34278;SDS011;20538;51.528;9.942;2022-11-14T05:08:42;69.20;;;26.05;;
34278;SDS011;20538;51.528;9.942;2022-11-14T05:11:12;59.38;;;26.65;;
34278;SDS011;20538;51.528;9.942;2022-11-14T05:13:39;72.63;;;26.17;;
34278;SDS011;20538;51.528;9.942;2022-11-14T05:16:05;68.55;;;26.60;;
34278;SDS011;20538;51.528;9.942;2022-11-14T05:18:31;65.38;;;25.98;;
34278;SDS011;20538;51.528;9.942;2022-11-14T05:20:57;67.00;;;26.83;;
34278;SDS011;20538;51.528;9.942;2022-11-14T05:23:23;62.25;;;26.45;;
34278;SDS011;20538;51.528;9.942;2022-11-14T05:28:28;66.90;;;27.17;;
34278;SDS011;20538;51.528;9.942;2022-11-14T05:31:07;65.43;;;27.00;;
34278;SDS011;20538;51.528;9.942;2022-11-14T05:33:37;72.60;;;27.85;;
34278;SDS011;20538;51.528;9.942;2022-11-14T05:38:30;68.07;;;27.77;;
34278;SDS011;20538;51.528;9.942;2022-11-14T05:40:55;72.90;;;28.27;;
34278;SDS011;20538;51.528;9.942;2022-11-14T05:43:21;63.83;;;27.17;;
34278;SDS011;20538;51.528;9.942;2022-11-14T05:45:47;67.93;;;28.95;;
34278;SDS011;20538;51.528;9.942;2022-11-14T05:48:12;59.63;;;24.35;;
34278;SDS011;20538;51.528;9.942;2022-11-14T05:50:38;69.82;;;26.65;;
34278;SDS011;20538;51.528;9.942;2022-11-14T05:53:03;68.43;;;26.98;;
34278;SDS011;20538;51.528;9.942;2022-11-14T05:55:29;64.05;;;25.85;;
34278;SDS011;20538;51.528;9.942;2022-11-14T05:57:58;83.22;;;28.77;;
34278;SDS011;20538;51.528;9.942;2022-11-14T06:00:24;69.53;;;28.30;;
34278;SDS011;20538;51.528;9.942;2022-11-14T06:02:52;68.53;;;28.00;;
34278;SDS011;20538;51.528;9.942;2022-11-14T06:05:19;66.63;;;27.70;;
34278;SDS011;20538;51.528;9.942;2022-11-14T06:07:45;67.35;;;28.40;;
34278;SDS011;20538;51.528;9.942;2022-11-14T06:10:11;68.78;;;28.63;;
34278;SDS011;20538;51.528;9.942;2022-11-14T06:12:37;65.55;;;29.33;;
34278;SDS011;20538;51.528;9.942;2022-11-14T06:15:04;66.50;;;26.08;;
34278;SDS011;20538;51.528;9.942;2022-11-14T06:17:30;69.47;;;28.92;;
34278;SDS011;20538;51.528;9.942;2022-11-14T06:19:55;72.43;;;28.48;;
34278;SDS011;20538;51.528;9.942;2022-11-14T06:22:21;67.20;;;26.75;;
34278;SDS011;20538;51.528;9.942;2022-11-14T06:24:47;66.20;;;27.15;;
34278;SDS011;20538;51.528;9.942;2022-11-14T06:27:12;69.80;;;28.40;;
34278;SDS011;20538;51.528;9.942;2022-11-14T06:29:38;63.38;;;27.58;;
34278;SDS011;20538;51.528;9.942;2022-11-14T06:32:03;61.78;;;26.92;;
34278;SDS011;20538;51.528;9.942;2022-11-14T06:34:29;61.13;;;26.80;;
34278;SDS011;20538;51.528;9.942;2022-11-14T06:36:55;62.10;;;26.55;;
34278;SDS011;20538;51.528;9.942;2022-11-14T06:39:20;67.72;;;27.58;;
34278;SDS011;20538;51.528;9.942;2022-11-14T06:41:46;60.70;;;26.77;;
34278;SDS011;20538;51.528;9.942;2022-11-14T06:44:11;64.63;;;25.42;;
34278;SDS011;20538;51.528;9.942;2022-11-14T06:46:39;61.25;;;24.83;;
34278;SDS011;20538;51.528;9.942;2022-11-14T06:49:04;63.13;;;27.58;;
34278;SDS011;20538;51.528;9.942;2022-11-14T06:51:30;61.20;;;26.42;;
34278;SDS011;20538;51.528;9.942;2022-11-14T06:53:56;66.72;;;26.27;;
34278;SDS011;20538;51.528;9.942;2022-11-14T06:56:22;67.45;;;26.85;;
34278;SDS011;20538;51.528;9.942;2022-11-14T06:58:48;70.43;;;28.75;;
34278;SDS011;20538;51.528;9.942;2022-11-14T07:01:17;78.05;;;29.38;;
34278;SDS011;20538;51.528;9.942;2022-11-14T07:03:46;68.55;;;27.25;;
34278;SDS011;20538;51.528;9.942;2022-11-14T07:06:16;65.70;;;26.40;;
34278;SDS011;20538;51.528;9.942;2022-11-14T07:08:46;68.65;;;27.40;;
34278;SDS011;20538;51.528;9.942;2022-11-14T07:11:13;95.28;;;42.50;;
34278;SDS011;20538;51.528;9.942;2022-11-14T07:13:47;73.50;;;29.92;;
34278;SDS011;20538;51.528;9.942;2022-11-14T07:16:30;68.47;;;28.00;;
34278;SDS011;20538;51.528;9.942;2022-11-14T07:18:59;70.95;;;26.65;;
34278;SDS011;20538;51.528;9.942;2022-11-14T07:21:26;89.00;;;28.38;;
34278;SDS011;20538;51.528;9.942;2022-11-14T07:23:53;86.07;;;28.45;;
34278;SDS011;20538;51.528;9.942;2022-11-14T07:26:19;80.53;;;29.85;;
34278;SDS011;20538;51.528;9.942;2022-11-14T07:28:45;78.03;;;28.42;;
34278;SDS011;20538;51.528;9.942;2022-11-14T07:31:12;76.93;;;28.52;;
34278;SDS011;20538;51.528;9.942;2022-11-14T07:33:40;89.20;;;28.67;;
34278;SDS011;20538;51.528;9.942;2022-11-14T07:36:07;84.18;;;28.98;;
34278;SDS011;20538;51.528;9.942;2022-11-14T07:38:34;74.00;;;27.65;;
34278;SDS011;20538;51.528;9.942;2022-11-14T07:41:01;75.18;;;28.20;;
34278;SDS011;20538;51.528;9.942;2022-11-14T07:43:34;70.70;;;27.77;;
34278;SDS011;20538;51.528;9.942;2022-11-14T07:46:04;73.28;;;27.27;;
34278;SDS011;20538;51.528;9.942;2022-11-14T07:48:32;68.88;;;25.55;;
34278;SDS011;20538;51.528;9.942;2022-11-14T07:50:58;60.00;;;25.63;;
34278;SDS011;20538;51.528;9.942;2022-11-14T07:53:28;72.63;;;26.55;;
34278;SDS011;20538;51.528;9.942;2022-11-14T07:55:54;63.38;;;26.60;;
34278;SDS011;20538;51.528;9.942;2022-11-14T07:58:20;65.88;;;28.00;;
34278;SDS011;20538;51.528;9.942;2022-11-14T08:00:46;67.45;;;28.70;;
34278;SDS011;20538;51.528;9.942;2022-11-14T08:03:12;68.30;;;28.33;;
34278;SDS011;20538;51.528;9.942;2022-11-14T08:05:38;71.30;;;28.52;;
34278;SDS011;20538;51.528;9.942;2022-11-14T08:08:04;68.05;;;28.73;;
34278;SDS011;20538;51.528;9.942;2022-11-14T08:10:30;68.25;;;28.58;;
34278;SDS011;20538;51.528;9.942;2022-11-14T08:12:59;75.10;;;28.33;;
34278;SDS011;20538;51.528;9.942;2022-11-14T08:15:26;82.45;;;31.98;;
34278;SDS011;20538;51.528;9.942;2022-11-14T08:17:55;60.88;;;26.02;;
34278;SDS011;20538;51.528;9.942;2022-11-14T08:20:22;70.10;;;27.52;;
34278;SDS011;20538;51.528;9.942;2022-11-14T08:22:48;63.38;;;27.25;;
34278;SDS011;20538;51.528;9.942;2022-11-14T08:25:14;60.58;;;27.15;;
34278;SDS011;20538;51.528;9.942;2022-11-14T08:27:39;66.85;;;26.83;;
34278;SDS011;20538;51.528;9.942;2022-11-14T08:30:05;56.03;;;24.23;;
34278;SDS011;20538;51.528;9.942;2022-11-14T08:32:34;58.38;;;25.77;;
34278;SDS011;20538;51.528;9.942;2022-11-14T08:35:02;59.00;;;25.77;;
34278;SDS011;20538;51.528;9.942;2022-11-14T08:37:28;59.28;;;23.90;;
34278;SDS011;20538;51.528;9.942;2022-11-14T08:39:54;58.33;;;24.42;;
34278;SDS011;20538;51.528;9.942;2022-11-14T08:42:19;44.80;;;21.45;;
34278;SDS011;20538;51.528;9.942;2022-11-14T08:44:45;42.17;;;20.48;;
34278;SDS011;20538;51.528;9.942;2022-11-14T08:47:11;41.22;;;19.60;;
34278;SDS011;20538;51.528;9.942;2022-11-14T08:49:36;41.78;;;20.60;;
34278;SDS011;20538;51.528;9.942;2022-11-14T08:52:02;36.28;;;18.20;;
34278;SDS011;20538;51.528;9.942;2022-11-14T08:54:27;35.20;;;19.02;;
34278;SDS011;20538;51.528;9.942;2022-11-14T08:56:53;34.83;;;18.25;;
34278;SDS011;20538;51.528;9.942;2022-11-14T08:59:19;33.53;;;17.33;;
34278;SDS011;20538;51.528;9.942;2022-11-14T09:01:44;32.47;;;18.48;;
34278;SDS011;20538;51.528;9.942;2022-11-14T09:04:10;35.47;;;18.20;;
34278;SDS011;20538;51.528;9.942;2022-11-14T09:06:36;31.58;;;16.73;;
34278;SDS011;20538;51.528;9.942;2022-11-14T09:09:01;31.42;;;16.02;;
34278;SDS011;20538;51.528;9.942;2022-11-14T09:11:27;32.47;;;16.88;;
34278;SDS011;20538;51.528;9.942;2022-11-14T09:13:53;30.85;;;17.38;;
34278;SDS011;20538;51.528;9.942;2022-11-14T09:16:18;30.65;;;17.15;;
34278;SDS011;20538;51.528;9.942;2022-11-14T09:18:44;29.38;;;15.98;;
34278;SDS011;20538;51.528;9.942;2022-11-14T09:21:10;31.50;;;17.05;;
34278;SDS011;20538;51.528;9.942;2022-11-14T09:23:36;29.40;;;16.20;;
34278;SDS011;20538;51.528;9.942;2022-11-14T09:26:03;31.00;;;15.95;;
34278;SDS011;20538;51.528;9.942;2022-11-14T09:28:33;30.13;;;15.73;;
34278;SDS011;20538;51.528;9.942;2022-11-14T09:31:00;28.77;;;15.25;;
34278;SDS011;20538;51.528;9.942;2022-11-14T09:33:26;37.05;;;18.55;;
34278;SDS011;20538;51.528;9.942;2022-11-14T09:35:56;32.28;;;17.33;;
34278;SDS011;20538;51.528;9.942;2022-11-14T09:38:22;29.13;;;15.18;;
34278;SDS011;20538;51.528;9.942;2022-11-14T09:43:34;31.33;;;15.73;;
34278;SDS011;20538;51.528;9.942;2022-11-14T09:46:51;28.17;;;14.65;;
34278;SDS011;20538;51.528;9.942;2022-11-14T09:49:54;26.60;;;15.13;;
34278;SDS011;20538;51.528;9.942;2022-11-14T09:52:04;28.40;;;15.73;;
34278;SDS011;20538;51.528;9.942;2022-11-14T09:54:55;24.83;;;13.48;;
34278;SDS011;20538;51.528;9.942;2022-11-14T09:57:27;23.90;;;12.40;;
34278;SDS011;20538;51.528;9.942;2022-11-14T09:59:53;23.33;;;12.55;;
34278;SDS011;20538;51.528;9.942;2022-11-14T10:10:12;22.90;;;12.45;;
34278;SDS011;20538;51.528;9.942;2022-11-14T10:24:16;23.13;;;13.07;;
34278;SDS011;20538;51.528;9.942;2022-11-14T10:26:53;24.27;;;14.30;;
34278;SDS011;20538;51.528;9.942;2022-11-14T10:32:23;31.15;;;13.25;;
34278;SDS011;20538;51.528;9.942;2022-11-14T10:35:13;26.10;;;14.63;;
34278;SDS011;20538;51.528;9.942;2022-11-14T10:43:15;27.63;;;14.15;;
34278;SDS011;20538;51.528;9.942;2022-11-14T10:45:43;25.40;;;13.77;;
34278;SDS011;20538;51.528;9.942;2022-11-14T10:53:55;24.80;;;13.95;;
34278;SDS011;20538;51.528;9.942;2022-11-14T10:56:47;22.10;;;13.18;;
34278;SDS011;20538;51.528;9.942;2022-11-14T10:59:14;22.95;;;13.60;;
34278;SDS011;20538;51.528;9.942;2022-11-14T11:04:24;30.40;;;16.20;;
34278;SDS011;20538;51.528;9.942;2022-11-14T11:06:53;24.48;;;14.88;;
34278;SDS011;20538;51.528;9.942;2022-11-14T11:09:21;28.13;;;14.73;;
34278;SDS011;20538;51.528;9.942;2022-11-14T11:12:08;23.75;;;13.73;;
34278;SDS011;20538;51.528;9.942;2022-11-14T11:14:44;24.88;;;14.30;;
34278;SDS011;20538;51.528;9.942;2022-11-14T11:19:45;25.15;;;14.13;;
34278;SDS011;20538;51.528;9.942;2022-11-14T11:22:23;26.25;;;13.77;;
34278;SDS011;20538;51.528;9.942;2022-11-14T11:24:49;30.42;;;14.77;;
34278;SDS011;20538;51.528;9.942;2022-11-14T11:29:48;27.45;;;15.32;;
34278;SDS011;20538;51.528;9.942;2022-11-14T11:32:25;26.25;;;13.90;;
34278;SDS011;20538;51.528;9.942;2022-11-14T11:34:51;24.83;;;13.10;;
34278;SDS011;20538;51.528;9.942;2022-11-14T11:37:18;24.40;;;13.35;;
34278;SDS011;20538;51.528;9.942;2022-11-14T11:39:51;24.77;;;14.75;;
34278;SDS011;20538;51.528;9.942;2022-11-14T11:42:24;21.45;;;12.95;;
34278;SDS011;20538;51.528;9.942;2022-11-14T11:45:16;22.40;;;12.80;;
34278;SDS011;20538;51.528;9.942;2022-11-14T11:47:50;22.92;;;13.27;;
34278;SDS011;20538;51.528;9.942;2022-11-14T11:50:24;21.17;;;12.52;;
34278;SDS011;20538;51.528;9.942;2022-11-14T11:53:05;22.00;;;12.85;;
34278;SDS011;20538;51.528;9.942;2022-11-14T11:56:03;21.13;;;12.45;;
34278;SDS011;20538;51.528;9.942;2022-11-14T12:01:10;27.17;;;13.82;;
34278;SDS011;20538;51.528;9.942;2022-11-14T12:03:37;20.58;;;12.63;;
34278;SDS011;20538;51.528;9.942;2022-11-14T12:08:56;19.25;;;12.15;;
34278;SDS011;20538;51.528;9.942;2022-11-14T12:11:43;23.55;;;12.27;;
34278;SDS011;20538;51.528;9.942;2022-11-14T12:25:37;22.15;;;12.30;;
34278;SDS011;20538;51.528;9.942;2022-11-14T12:30:52;22.00;;;12.27;;
34278;SDS011;20538;51.528;9.942;2022-11-14T12:35:55;23.85;;;11.80;;
34278;SDS011;20538;51.528;9.942;2022-11-14T12:38:23;21.75;;;12.93;;
34278;SDS011;20538;51.528;9.942;2022-11-14T12:40:57;17.90;;;11.07;;
34278;SDS011;20538;51.528;9.942;2022-11-14T12:46:09;24.20;;;12.25;;
34278;SDS011;20538;51.528;9.942;2022-11-14T12:53:53;21.05;;;11.68;;
34278;SDS011;20538;51.528;9.942;2022-11-14T13:12:26;20.65;;;12.05;;
34278;SDS011;20538;51.528;9.942;2022-11-14T13:18:03;17.75;;;10.77;;
34278;SDS011;20538;51.528;9.942;2022-11-14T13:21:26;21.95;;;10.93;;
34278;SDS011;20538;51.528;9.942;2022-11-14T13:24:10;26.30;;;12.55;;
34278;SDS011;20538;51.528;9.942;2022-11-14T13:26:39;21.92;;;12.65;;
34278;SDS011;20538;51.528;9.942;2022-11-14T13:29:07;18.85;;;11.05;;
34278;SDS011;20538;51.528;9.942;2022-11-14T13:31:59;20.75;;;11.82;;
34278;SDS011;20538;51.528;9.942;2022-11-14T13:34:32;21.40;;;11.80;;
34278;SDS011;20538;51.528;9.942;2022-11-14T13:37:29;18.60;;;11.75;;
34278;SDS011;20538;51.528;9.942;2022-11-14T13:40:15;20.00;;;12.70;;
34278;SDS011;20538;51.528;9.942;2022-11-14T13:51:10;19.50;;;11.15;;
34278;SDS011;20538;51.528;9.942;2022-11-14T13:53:39;19.30;;;11.40;;
34278;SDS011;20538;51.528;9.942;2022-11-14T14:09:17;25.30;;;12.43;;
34278;SDS011;20538;51.528;9.942;2022-11-14T14:14:26;22.20;;;11.48;;
34278;SDS011;20538;51.528;9.942;2022-11-14T14:17:15;23.52;;;11.48;;
34278;SDS011;20538;51.528;9.942;2022-11-14T14:22:41;16.88;;;10.55;;
34278;SDS011;20538;51.528;9.942;2022-11-14T14:25:26;20.85;;;11.40;;
34278;SDS011;20538;51.528;9.942;2022-11-14T14:28:08;20.08;;;12.20;;
34278;SDS011;20538;51.528;9.942;2022-11-14T14:33:39;28.38;;;11.60;;
34278;SDS011;20538;51.528;9.942;2022-11-14T14:38:41;21.20;;;12.10;;
34278;SDS011;20538;51.528;9.942;2022-11-14T14:41:07;25.02;;;11.77;;
34278;SDS011;20538;51.528;9.942;2022-11-14T14:43:37;25.17;;;11.93;;
34278;SDS011;20538;51.528;9.942;2022-11-14T14:46:07;20.90;;;11.38;;
34278;SDS011;20538;51.528;9.942;2022-11-14T14:48:34;18.73;;;10.98;;
34278;SDS011;20538;51.528;9.942;2022-11-14T14:51:03;19.85;;;11.13;;
34278;SDS011;20538;51.528;9.942;2022-11-14T14:53:34;21.73;;;11.32;;
34278;SDS011;20538;51.528;9.942;2022-11-14T14:56:04;21.02;;;11.18;;
34278;SDS011;20538;51.528;9.942;2022-11-14T14:58:33;22.23;;;11.10;;
34278;SDS011;20538;51.528;9.942;2022-11-14T15:03:39;17.65;;;10.90;;
34278;SDS011;20538;51.528;9.942;2022-11-14T15:06:31;26.05;;;11.18;;
34278;SDS011;20538;51.528;9.942;2022-11-14T15:11:41;21.05;;;10.93;;
34278;SDS011;20538;51.528;9.942;2022-11-14T15:14:11;24.55;;;11.80;;
34278;SDS011;20538;51.528;9.942;2022-11-14T15:16:41;28.25;;;11.88;;
34278;SDS011;20538;51.528;9.942;2022-11-14T15:19:14;25.52;;;11.95;;
34278;SDS011;20538;51.528;9.942;2022-11-14T15:21:43;21.05;;;12.32;;
34278;SDS011;20538;51.528;9.942;2022-11-14T15:26:46;23.27;;;12.18;;
34278;SDS011;20538;51.528;9.942;2022-11-14T15:29:18;30.00;;;13.40;;
34278;SDS011;20538;51.528;9.942;2022-11-14T15:31:58;24.45;;;11.80;;
34278;SDS011;20538;51.528;9.942;2022-11-14T15:34:30;20.35;;;11.02;;
34278;SDS011;20538;51.528;9.942;2022-11-14T15:39:37;18.88;;;11.10;;
34278;SDS011;20538;51.528;9.942;2022-11-14T15:44:42;18.70;;;11.35;;
34278;SDS011;20538;51.528;9.942;2022-11-14T15:53:15;18.80;;;11.20;;
34278;SDS011;20538;51.528;9.942;2022-11-14T15:55:46;18.77;;;11.43;;
34278;SDS011;20538;51.528;9.942;2022-11-14T15:58:12;22.27;;;11.65;;
34278;SDS011;20538;51.528;9.942;2022-11-14T16:00:45;22.67;;;11.95;;
34278;SDS011;20538;51.528;9.942;2022-11-14T16:03:16;21.83;;;11.85;;
34278;SDS011;20538;51.528;9.942;2022-11-14T16:05:44;22.27;;;12.35;;
34278;SDS011;20538;51.528;9.942;2022-11-14T16:08:10;20.90;;;11.98;;
34278;SDS011;20538;51.528;9.942;2022-11-14T16:10:37;22.58;;;12.65;;
34278;SDS011;20538;51.528;9.942;2022-11-14T16:13:03;21.15;;;11.95;;
34278;SDS011;20538;51.528;9.942;2022-11-14T16:15:29;22.40;;;12.95;;
34278;SDS011;20538;51.528;9.942;2022-11-14T16:17:55;22.48;;;13.25;;
34278;SDS011;20538;51.528;9.942;2022-11-14T16:20:27;23.65;;;11.80;;
34278;SDS011;20538;51.528;9.942;2022-11-14T16:22:57;21.63;;;12.25;;
34278;SDS011;20538;51.528;9.942;2022-11-14T16:25:24;25.13;;;13.00;;
34278;SDS011;20538;51.528;9.942;2022-11-14T16:27:51;24.52;;;12.73;;
34278;SDS011;20538;51.528;9.942;2022-11-14T16:30:18;24.15;;;12.82;;
34278;SDS011;20538;51.528;9.942;2022-11-14T16:32:47;25.92;;;13.25;;
34278;SDS011;20538;51.528;9.942;2022-11-14T16:35:23;27.63;;;14.63;;
34278;SDS011;20538;51.528;9.942;2022-11-14T16:37:50;24.48;;;13.57;;
34278;SDS011;20538;51.528;9.942;2022-11-14T16:40:20;24.60;;;13.98;;
34278;SDS011;20538;51.528;9.942;2022-11-14T16:42:50;27.30;;;14.60;;
34278;SDS011;20538;51.528;9.942;2022-11-14T16:45:19;27.70;;;14.05;;
34278;SDS011;20538;51.528;9.942;2022-11-14T16:47:44;40.85;;;14.50;;
34278;SDS011;20538;51.528;9.942;2022-11-14T16:50:10;28.85;;;14.80;;
34278;SDS011;20538;51.528;9.942;2022-11-14T16:52:36;28.73;;;13.40;;
34278;SDS011;20538;51.528;9.942;2022-11-14T16:55:06;24.65;;;13.85;;
34278;SDS011;20538;51.528;9.942;2022-11-14T16:57:33;24.20;;;13.32;;
34278;SDS011;20538;51.528;9.942;2022-11-14T16:59:58;25.13;;;13.80;;
34278;SDS011;20538;51.528;9.942;2022-11-14T17:02:24;24.27;;;13.85;;